sensor_id;sensor_type;location;lat;lon;timestamp;P1;durP1;ratioP1;P2;durP2;ratioP2
840;SDS011;406;48.566;13.450;2023-03-01T00:01:55;17.02;;;12.25;;
840;SDS011;406;48.566;13.450;2023-03-01T00:04:22;27.10;;;18.20;;
840;SDS011;406;48.566;13.450;2023-03-01T00:06:48;22.15;;;13.30;;
840;SDS011;406;48.566;13.450;2023-03-01T00:09:15;19.25;;;14.18;;
840;SDS011;406;48.566;13.450;2023-03-01T00:11:42;21.73;;;15.65;;
840;SDS011;406;48.566;13.450;2023-03-01T00:14:09;23.27;;;17.10;;
840;SDS011;406;48.566;13.450;2023-03-01T00:16:40;23.98;;;17.48;;
840;SDS011;406;48.566;13.450;2023-03-01T00:19:09;19.17;;;17.05;;
840;SDS011;406;48.566;13.450;2023-03-01T00:21:38;23.90;;;17.67;;
840;SDS011;406;48.566;13.450;2023-03-01T00:24:06;21.45;;;16.30;;
840;SDS011;406;48.566;13.450;2023-03-01T00:26:32;20.70;;;16.40;;
840;SDS011;406;48.566;13.450;2023-03-01T00:28:59;20.35;;;14.60;;
840;SDS011;406;48.566;13.450;2023-03-01T00:31:27;20.25;;;14.55;;
840;SDS011;406;48.566;13.450;2023-03-01T00:33:56;22.92;;;15.95;;
840;SDS011;406;48.566;13.450;2023-03-01T00:36:25;21.67;;;14.27;;
840;SDS011;406;48.566;13.450;2023-03-01T00:38:53;20.17;;;12.85;;
840;SDS011;406;48.566;13.450;2023-03-01T00:41:20;18.98;;;12.38;;
840;SDS011;406;48.566;13.450;2023-03-01T00:43:49;19.98;;;14.43;;
840;SDS011;406;48.566;13.450;2023-03-01T00:46:17;22.02;;;15.40;;
840;SDS011;406;48.566;13.450;2023-03-01T00:48:44;16.20;;;9.57;;
840;SDS011;406;48.566;13.450;2023-03-01T00:51:13;21.98;;;17.05;;
840;SDS011;406;48.566;13.450;2023-03-01T00:53:40;22.63;;;16.77;;
840;SDS011;406;48.566;13.450;2023-03-01T00:56:08;22.25;;;15.10;;
840;SDS011;406;48.566;13.450;2023-03-01T00:58:36;20.77;;;17.33;;
840;SDS011;406;48.566;13.450;2023-03-01T01:01:09;19.85;;;15.68;;
840;SDS011;406;48.566;13.450;2023-03-01T01:03:47;25.90;;;16.48;;
840;SDS011;406;48.566;13.450;2023-03-01T01:06:16;20.83;;;14.82;;
840;SDS011;406;48.566;13.450;2023-03-01T01:09:06;24.85;;;16.95;;
840;SDS011;406;48.566;13.450;2023-03-01T01:11:33;20.17;;;14.82;;
840;SDS011;406;48.566;13.450;2023-03-01T01:14:01;24.15;;;17.70;;
840;SDS011;406;48.566;13.450;2023-03-01T01:16:28;23.77;;;18.58;;
840;SDS011;406;48.566;13.450;2023-03-01T01:18:56;22.63;;;14.43;;
840;SDS011;406;48.566;13.450;2023-03-01T01:21:23;20.05;;;11.15;;
840;SDS011;406;48.566;13.450;2023-03-01T01:23:50;17.05;;;12.05;;
840;SDS011;406;48.566;13.450;2023-03-01T01:26:21;28.73;;;10.95;;
840;SDS011;406;48.566;13.450;2023-03-01T01:28:49;21.02;;;16.45;;
840;SDS011;406;48.566;13.450;2023-03-01T01:31:16;21.63;;;11.82;;
840;SDS011;406;48.566;13.450;2023-03-01T01:33:43;20.77;;;14.35;;
840;SDS011;406;48.566;13.450;2023-03-01T01:36:10;26.13;;;15.23;;
840;SDS011;406;48.566;13.450;2023-03-01T01:38:37;25.55;;;16.40;;
840;SDS011;406;48.566;13.450;2023-03-01T01:41:05;19.10;;;12.50;;
840;SDS011;406;48.566;13.450;2023-03-01T01:43:36;24.25;;;18.40;;
840;SDS011;406;48.566;13.450;2023-03-01T01:46:13;21.42;;;13.32;;
840;SDS011;406;48.566;13.450;2023-03-01T01:48:44;21.85;;;14.48;;
840;SDS011;406;48.566;13.450;2023-03-01T01:51:15;19.02;;;13.30;;
840;SDS011;406;48.566;13.450;2023-03-01T01:53:51;19.60;;;9.35;;
840;SDS011;406;48.566;13.450;2023-03-01T01:56:20;21.13;;;13.80;;
840;SDS011;406;48.566;13.450;2023-03-01T01:58:47;17.60;;;11.77;;
840;SDS011;406;48.566;13.450;2023-03-01T02:01:13;19.48;;;12.77;;
840;SDS011;406;48.566;13.450;2023-03-01T02:03:40;22.17;;;14.30;;
840;SDS011;406;48.566;13.450;2023-03-01T02:08:36;21.15;;;13.55;;
840;SDS011;406;48.566;13.450;2023-03-01T02:11:04;22.90;;;15.25;;
840;SDS011;406;48.566;13.450;2023-03-01T02:13:31;21.88;;;15.70;;
840;SDS011;406;48.566;13.450;2023-03-01T02:15:59;23.48;;;16.48;;
840;SDS011;406;48.566;13.450;2023-03-01T02:18:29;22.05;;;15.43;;
840;SDS011;406;48.566;13.450;2023-03-01T02:23:38;24.05;;;15.80;;
840;SDS011;406;48.566;13.450;2023-03-01T02:26:11;17.52;;;12.13;;
840;SDS011;406;48.566;13.450;2023-03-01T02:28:44;27.35;;;20.63;;
840;SDS011;406;48.566;13.450;2023-03-01T02:31:14;26.45;;;16.48;;
840;SDS011;406;48.566;13.450;2023-03-01T02:34:02;24.35;;;14.90;;
840;SDS011;406;48.566;13.450;2023-03-01T02:36:35;23.55;;;15.32;;
840;SDS011;406;48.566;13.450;2023-03-01T02:39:04;26.33;;;16.05;;
840;SDS011;406;48.566;13.450;2023-03-01T02:41:35;22.52;;;13.45;;
840;SDS011;406;48.566;13.450;2023-03-01T02:44:03;23.42;;;15.88;;
840;SDS011;406;48.566;13.450;2023-03-01T02:46:30;23.00;;;17.33;;
840;SDS011;406;48.566;13.450;2023-03-01T02:48:59;24.25;;;16.98;;
840;SDS011;406;48.566;13.450;2023-03-01T02:51:33;24.00;;;14.05;;
840;SDS011;406;48.566;13.450;2023-03-01T02:57:05;25.27;;;17.05;;
840;SDS011;406;48.566;13.450;2023-03-01T02:59:33;23.60;;;14.95;;
840;SDS011;406;48.566;13.450;2023-03-01T03:02:07;20.63;;;15.20;;
840;SDS011;406;48.566;13.450;2023-03-01T03:04:34;20.77;;;14.05;;
840;SDS011;406;48.566;13.450;2023-03-01T03:07:00;23.30;;;15.70;;
840;SDS011;406;48.566;13.450;2023-03-01T03:09:27;21.65;;;15.43;;
840;SDS011;406;48.566;13.450;2023-03-01T03:11:55;23.40;;;15.50;;
840;SDS011;406;48.566;13.450;2023-03-01T03:14:21;28.30;;;16.27;;
840;SDS011;406;48.566;13.450;2023-03-01T03:16:48;27.75;;;18.05;;
840;SDS011;406;48.566;13.450;2023-03-01T03:19:16;23.70;;;15.20;;
840;SDS011;406;48.566;13.450;2023-03-01T03:21:44;26.23;;;15.35;;
840;SDS011;406;48.566;13.450;2023-03-01T03:24:11;23.65;;;16.80;;
840;SDS011;406;48.566;13.450;2023-03-01T03:26:37;26.80;;;13.85;;
840;SDS011;406;48.566;13.450;2023-03-01T03:29:04;27.25;;;16.58;;
840;SDS011;406;48.566;13.450;2023-03-01T03:31:30;22.60;;;16.15;;
840;SDS011;406;48.566;13.450;2023-03-01T03:33:57;25.02;;;14.27;;
840;SDS011;406;48.566;13.450;2023-03-01T03:36:25;26.23;;;16.05;;
840;SDS011;406;48.566;13.450;2023-03-01T03:38:51;25.23;;;18.02;;
840;SDS011;406;48.566;13.450;2023-03-01T03:41:18;26.98;;;15.77;;
840;SDS011;406;48.566;13.450;2023-03-01T03:43:44;23.75;;;15.50;;
840;SDS011;406;48.566;13.450;2023-03-01T03:46:11;28.50;;;16.75;;
840;SDS011;406;48.566;13.450;2023-03-01T03:48:42;29.33;;;17.73;;
840;SDS011;406;48.566;13.450;2023-03-01T03:51:10;26.30;;;15.93;;
840;SDS011;406;48.566;13.450;2023-03-01T03:53:38;27.15;;;16.17;;
840;SDS011;406;48.566;13.450;2023-03-01T03:56:05;30.30;;;19.45;;
840;SDS011;406;48.566;13.450;2023-03-01T03:58:32;26.48;;;17.48;;
840;SDS011;406;48.566;13.450;2023-03-01T04:00:58;26.27;;;18.10;;
840;SDS011;406;48.566;13.450;2023-03-01T04:03:27;25.80;;;15.55;;
840;SDS011;406;48.566;13.450;2023-03-01T04:05:56;26.98;;;18.67;;
840;SDS011;406;48.566;13.450;2023-03-01T04:08:23;26.48;;;16.08;;
840;SDS011;406;48.566;13.450;2023-03-01T04:10:51;25.67;;;17.13;;
840;SDS011;406;48.566;13.450;2023-03-01T04:13:20;24.95;;;17.70;;
840;SDS011;406;48.566;13.450;2023-03-01T04:15:51;25.88;;;16.02;;
840;SDS011;406;48.566;13.450;2023-03-01T04:18:19;25.13;;;16.73;;
840;SDS011;406;48.566;13.450;2023-03-01T04:20:47;22.60;;;15.60;;
840;SDS011;406;48.566;13.450;2023-03-01T04:23:15;23.67;;;17.30;;
840;SDS011;406;48.566;13.450;2023-03-01T04:25:46;25.52;;;17.17;;
840;SDS011;406;48.566;13.450;2023-03-01T04:28:21;28.17;;;18.20;;
840;SDS011;406;48.566;13.450;2023-03-01T04:30:50;28.50;;;17.17;;
840;SDS011;406;48.566;13.450;2023-03-01T04:33:17;32.30;;;20.58;;
840;SDS011;406;48.566;13.450;2023-03-01T04:35:44;28.20;;;18.10;;
840;SDS011;406;48.566;13.450;2023-03-01T04:38:11;23.23;;;15.10;;
840;SDS011;406;48.566;13.450;2023-03-01T04:40:37;28.00;;;17.83;;
840;SDS011;406;48.566;13.450;2023-03-01T04:43:04;23.80;;;16.67;;
840;SDS011;406;48.566;13.450;2023-03-01T04:45:31;25.35;;;15.40;;
840;SDS011;406;48.566;13.450;2023-03-01T04:47:58;23.55;;;15.07;;
840;SDS011;406;48.566;13.450;2023-03-01T04:50:25;25.02;;;17.98;;
840;SDS011;406;48.566;13.450;2023-03-01T04:52:51;34.92;;;19.80;;
840;SDS011;406;48.566;13.450;2023-03-01T04:55:18;29.02;;;16.65;;
840;SDS011;406;48.566;13.450;2023-03-01T04:57:45;27.23;;;17.17;;
840;SDS011;406;48.566;13.450;2023-03-01T05:00:12;28.50;;;17.27;;
840;SDS011;406;48.566;13.450;2023-03-01T05:02:49;29.70;;;17.70;;
840;SDS011;406;48.566;13.450;2023-03-01T05:05:20;27.38;;;16.92;;
840;SDS011;406;48.566;13.450;2023-03-01T05:07:53;29.75;;;16.45;;
840;SDS011;406;48.566;13.450;2023-03-01T05:10:20;28.25;;;19.20;;
840;SDS011;406;48.566;13.450;2023-03-01T05:12:47;28.65;;;20.65;;
840;SDS011;406;48.566;13.450;2023-03-01T05:15:13;26.30;;;18.08;;
840;SDS011;406;48.566;13.450;2023-03-01T05:17:40;28.38;;;20.15;;
840;SDS011;406;48.566;13.450;2023-03-01T05:20:06;28.27;;;20.52;;
840;SDS011;406;48.566;13.450;2023-03-01T05:22:34;24.17;;;15.52;;
840;SDS011;406;48.566;13.450;2023-03-01T05:25:02;25.50;;;15.65;;
840;SDS011;406;48.566;13.450;2023-03-01T05:27:29;32.38;;;18.55;;
840;SDS011;406;48.566;13.450;2023-03-01T05:29:56;27.17;;;17.33;;
840;SDS011;406;48.566;13.450;2023-03-01T05:32:22;27.00;;;16.33;;
840;SDS011;406;48.566;13.450;2023-03-01T05:34:49;26.77;;;16.70;;
840;SDS011;406;48.566;13.450;2023-03-01T05:37:15;26.55;;;15.88;;
840;SDS011;406;48.566;13.450;2023-03-01T05:39:42;31.80;;;19.23;;
840;SDS011;406;48.566;13.450;2023-03-01T05:42:10;27.20;;;18.50;;
840;SDS011;406;48.566;13.450;2023-03-01T05:44:37;27.88;;;18.48;;
840;SDS011;406;48.566;13.450;2023-03-01T05:47:03;33.65;;;18.30;;
840;SDS011;406;48.566;13.450;2023-03-01T05:49:31;33.42;;;20.48;;
840;SDS011;406;48.566;13.450;2023-03-01T05:51:57;32.72;;;19.52;;
840;SDS011;406;48.566;13.450;2023-03-01T05:54:24;30.67;;;21.58;;
840;SDS011;406;48.566;13.450;2023-03-01T05:56:50;32.47;;;19.60;;
840;SDS011;406;48.566;13.450;2023-03-01T05:59:17;32.00;;;18.52;;
840;SDS011;406;48.566;13.450;2023-03-01T06:01:43;26.20;;;18.02;;
840;SDS011;406;48.566;13.450;2023-03-01T06:04:10;31.58;;;18.38;;
840;SDS011;406;48.566;13.450;2023-03-01T06:06:36;26.27;;;18.35;;
840;SDS011;406;48.566;13.450;2023-03-01T06:09:06;30.95;;;17.55;;
840;SDS011;406;48.566;13.450;2023-03-01T06:11:34;31.30;;;18.95;;
840;SDS011;406;48.566;13.450;2023-03-01T06:14:01;33.33;;;19.60;;
840;SDS011;406;48.566;13.450;2023-03-01T06:16:27;30.00;;;19.13;;
840;SDS011;406;48.566;13.450;2023-03-01T06:18:54;26.30;;;15.57;;
840;SDS011;406;48.566;13.450;2023-03-01T06:21:21;27.70;;;18.50;;
840;SDS011;406;48.566;13.450;2023-03-01T06:23:47;32.92;;;18.60;;
840;SDS011;406;48.566;13.450;2023-03-01T06:26:14;25.45;;;16.88;;
840;SDS011;406;48.566;13.450;2023-03-01T06:28:40;27.92;;;18.02;;
840;SDS011;406;48.566;13.450;2023-03-01T06:31:06;31.35;;;21.52;;
840;SDS011;406;48.566;13.450;2023-03-01T06:33:35;36.65;;;21.17;;
840;SDS011;406;48.566;13.450;2023-03-01T06:36:02;27.95;;;19.02;;
840;SDS011;406;48.566;13.450;2023-03-01T06:38:29;27.00;;;17.08;;
840;SDS011;406;48.566;13.450;2023-03-01T06:40:55;29.38;;;17.77;;
840;SDS011;406;48.566;13.450;2023-03-01T06:43:22;33.60;;;19.42;;
840;SDS011;406;48.566;13.450;2023-03-01T06:45:49;26.17;;;18.50;;
840;SDS011;406;48.566;13.450;2023-03-01T06:48:16;34.67;;;21.10;;
840;SDS011;406;48.566;13.450;2023-03-01T06:50:43;34.40;;;21.13;;
840;SDS011;406;48.566;13.450;2023-03-01T06:53:10;29.50;;;18.63;;
840;SDS011;406;48.566;13.450;2023-03-01T06:55:36;32.83;;;20.50;;
840;SDS011;406;48.566;13.450;2023-03-01T06:58:03;26.73;;;15.73;;
840;SDS011;406;48.566;13.450;2023-03-01T07:00:30;23.40;;;14.75;;
840;SDS011;406;48.566;13.450;2023-03-01T07:03:00;25.40;;;13.77;;
840;SDS011;406;48.566;13.450;2023-03-01T07:05:28;34.15;;;19.85;;
840;SDS011;406;48.566;13.450;2023-03-01T07:07:55;29.75;;;18.60;;
840;SDS011;406;48.566;13.450;2023-03-01T07:10:22;29.05;;;18.52;;
840;SDS011;406;48.566;13.450;2023-03-01T07:12:49;35.22;;;24.70;;
840;SDS011;406;48.566;13.450;2023-03-01T07:15:15;27.58;;;14.75;;
840;SDS011;406;48.566;13.450;2023-03-01T07:17:42;31.85;;;21.30;;
840;SDS011;406;48.566;13.450;2023-03-01T07:20:10;24.55;;;16.02;;
840;SDS011;406;48.566;13.450;2023-03-01T07:22:39;28.50;;;19.30;;
840;SDS011;406;48.566;13.450;2023-03-01T07:25:06;40.72;;;23.70;;
840;SDS011;406;48.566;13.450;2023-03-01T07:27:33;33.72;;;18.38;;
840;SDS011;406;48.566;13.450;2023-03-01T07:29:59;33.40;;;21.27;;
840;SDS011;406;48.566;13.450;2023-03-01T07:32:26;30.45;;;19.27;;
840;SDS011;406;48.566;13.450;2023-03-01T07:34:52;29.15;;;16.13;;
840;SDS011;406;48.566;13.450;2023-03-01T07:37:19;24.38;;;15.10;;
840;SDS011;406;48.566;13.450;2023-03-01T07:39:45;35.83;;;17.17;;
840;SDS011;406;48.566;13.450;2023-03-01T07:42:12;30.83;;;17.63;;
840;SDS011;406;48.566;13.450;2023-03-01T07:44:38;30.95;;;17.77;;
840;SDS011;406;48.566;13.450;2023-03-01T07:47:04;32.38;;;18.48;;
840;SDS011;406;48.566;13.450;2023-03-01T07:49:31;36.47;;;25.60;;
840;SDS011;406;48.566;13.450;2023-03-01T07:51:57;27.85;;;16.17;;
840;SDS011;406;48.566;13.450;2023-03-01T07:54:24;30.33;;;16.13;;
840;SDS011;406;48.566;13.450;2023-03-01T07:56:52;27.00;;;15.55;;
840;SDS011;406;48.566;13.450;2023-03-01T07:59:20;31.08;;;21.33;;
840;SDS011;406;48.566;13.450;2023-03-01T08:01:47;30.75;;;14.98;;
840;SDS011;406;48.566;13.450;2023-03-01T08:04:13;24.20;;;13.60;;
840;SDS011;406;48.566;13.450;2023-03-01T08:06:40;26.80;;;14.88;;
840;SDS011;406;48.566;13.450;2023-03-01T08:09:06;31.95;;;15.02;;
840;SDS011;406;48.566;13.450;2023-03-01T08:11:34;21.50;;;13.70;;
840;SDS011;406;48.566;13.450;2023-03-01T08:14:00;19.33;;;12.75;;
840;SDS011;406;48.566;13.450;2023-03-01T08:16:27;22.25;;;12.30;;
840;SDS011;406;48.566;13.450;2023-03-01T08:18:54;25.08;;;14.43;;
840;SDS011;406;48.566;13.450;2023-03-01T08:21:22;25.27;;;15.90;;
840;SDS011;406;48.566;13.450;2023-03-01T08:23:49;22.60;;;14.38;;
840;SDS011;406;48.566;13.450;2023-03-01T08:26:17;27.33;;;14.13;;
840;SDS011;406;48.566;13.450;2023-03-01T08:28:45;25.52;;;13.80;;
840;SDS011;406;48.566;13.450;2023-03-01T08:31:13;22.10;;;13.20;;
840;SDS011;406;48.566;13.450;2023-03-01T08:33:41;20.02;;;11.85;;
840;SDS011;406;48.566;13.450;2023-03-01T08:36:08;18.15;;;12.18;;
840;SDS011;406;48.566;13.450;2023-03-01T08:38:34;17.83;;;11.55;;
840;SDS011;406;48.566;13.450;2023-03-01T08:41:01;21.83;;;11.25;;
840;SDS011;406;48.566;13.450;2023-03-01T08:43:28;23.73;;;12.55;;
840;SDS011;406;48.566;13.450;2023-03-01T08:45:55;23.05;;;13.32;;
840;SDS011;406;48.566;13.450;2023-03-01T08:48:22;21.02;;;10.48;;
840;SDS011;406;48.566;13.450;2023-03-01T08:50:48;17.52;;;11.10;;
840;SDS011;406;48.566;13.450;2023-03-01T08:53:15;20.20;;;11.07;;
840;SDS011;406;48.566;13.450;2023-03-01T08:55:41;19.77;;;11.32;;
840;SDS011;406;48.566;13.450;2023-03-01T08:58:08;18.48;;;10.90;;
840;SDS011;406;48.566;13.450;2023-03-01T09:00:34;14.15;;;9.63;;
840;SDS011;406;48.566;13.450;2023-03-01T09:03:01;17.90;;;11.53;;
840;SDS011;406;48.566;13.450;2023-03-01T09:05:30;19.35;;;11.18;;
840;SDS011;406;48.566;13.450;2023-03-01T09:07:58;16.63;;;12.10;;
840;SDS011;406;48.566;13.450;2023-03-01T09:10:24;23.30;;;13.15;;
840;SDS011;406;48.566;13.450;2023-03-01T09:12:51;19.20;;;12.90;;
840;SDS011;406;48.566;13.450;2023-03-01T09:15:18;19.33;;;12.47;;
840;SDS011;406;48.566;13.450;2023-03-01T09:17:44;16.03;;;10.90;;
840;SDS011;406;48.566;13.450;2023-03-01T09:20:11;14.82;;;10.40;;
840;SDS011;406;48.566;13.450;2023-03-01T09:22:37;20.30;;;13.53;;
840;SDS011;406;48.566;13.450;2023-03-01T09:25:04;17.35;;;11.85;;
840;SDS011;406;48.566;13.450;2023-03-01T09:27:30;18.83;;;12.90;;
840;SDS011;406;48.566;13.450;2023-03-01T09:29:57;23.07;;;12.13;;
840;SDS011;406;48.566;13.450;2023-03-01T09:32:23;20.73;;;12.30;;
840;SDS011;406;48.566;13.450;2023-03-01T09:34:50;18.57;;;10.97;;
840;SDS011;406;48.566;13.450;2023-03-01T09:37:32;18.90;;;11.60;;
840;SDS011;406;48.566;13.450;2023-03-01T09:40:00;20.23;;;12.17;;
840;SDS011;406;48.566;13.450;2023-03-01T09:42:27;17.40;;;11.60;;
840;SDS011;406;48.566;13.450;2023-03-01T09:44:55;20.03;;;12.07;;
840;SDS011;406;48.566;13.450;2023-03-01T09:47:34;17.73;;;10.73;;
840;SDS011;406;48.566;13.450;2023-03-01T09:52:42;21.23;;;13.00;;
840;SDS011;406;48.566;13.450;2023-03-01T09:55:13;16.70;;;11.77;;
840;SDS011;406;48.566;13.450;2023-03-01T09:57:53;19.27;;;10.80;;
840;SDS011;406;48.566;13.450;2023-03-01T10:00:24;16.87;;;11.00;;
840;SDS011;406;48.566;13.450;2023-03-01T10:11:03;19.90;;;11.50;;
840;SDS011;406;48.566;13.450;2023-03-01T10:13:35;16.37;;;10.50;;
840;SDS011;406;48.566;13.450;2023-03-01T10:16:13;15.50;;;11.23;;
840;SDS011;406;48.566;13.450;2023-03-01T10:18:42;16.90;;;11.00;;
840;SDS011;406;48.566;13.450;2023-03-01T10:23:41;21.53;;;11.93;;
840;SDS011;406;48.566;13.450;2023-03-01T10:29:09;15.83;;;11.77;;
840;SDS011;406;48.566;13.450;2023-03-01T10:31:42;15.47;;;10.43;;
840;SDS011;406;48.566;13.450;2023-03-01T10:34:15;15.60;;;9.07;;
840;SDS011;406;48.566;13.450;2023-03-01T10:36:49;14.07;;;9.10;;
840;SDS011;406;48.566;13.450;2023-03-01T10:39:18;9.00;;;6.80;;
840;SDS011;406;48.566;13.450;2023-03-01T10:41:54;13.53;;;8.20;;
840;SDS011;406;48.566;13.450;2023-03-01T10:44:40;10.80;;;8.00;;
840;SDS011;406;48.566;13.450;2023-03-01T10:52:31;10.47;;;7.63;;
840;SDS011;406;48.566;13.450;2023-03-01T10:55:03;13.00;;;9.40;;
840;SDS011;406;48.566;13.450;2023-03-01T10:57:46;13.70;;;7.93;;
840;SDS011;406;48.566;13.450;2023-03-01T11:02:39;13.93;;;9.43;;
840;SDS011;406;48.566;13.450;2023-03-01T11:10:17;10.87;;;6.70;;
840;SDS011;406;48.566;13.450;2023-03-01T11:12:48;12.73;;;8.20;;
840;SDS011;406;48.566;13.450;2023-03-01T11:15:21;11.17;;;7.77;;
840;SDS011;406;48.566;13.450;2023-03-01T11:17:50;11.13;;;7.60;;
840;SDS011;406;48.566;13.450;2023-03-01T11:20:32;9.43;;;7.13;;
840;SDS011;406;48.566;13.450;2023-03-01T11:23:01;13.87;;;7.80;;
840;SDS011;406;48.566;13.450;2023-03-01T11:25:34;11.80;;;8.63;;
840;SDS011;406;48.566;13.450;2023-03-01T11:28:03;12.33;;;7.53;;
840;SDS011;406;48.566;13.450;2023-03-01T11:33:07;9.33;;;6.93;;
840;SDS011;406;48.566;13.450;2023-03-01T11:35:41;12.60;;;7.40;;
840;SDS011;406;48.566;13.450;2023-03-01T11:38:15;9.80;;;6.57;;
840;SDS011;406;48.566;13.450;2023-03-01T11:40:46;11.80;;;6.57;;
840;SDS011;406;48.566;13.450;2023-03-01T11:43:32;11.27;;;7.43;;
840;SDS011;406;48.566;13.450;2023-03-01T11:46:19;9.23;;;6.70;;
840;SDS011;406;48.566;13.450;2023-03-01T12:02:56;8.03;;;5.53;;
840;SDS011;406;48.566;13.450;2023-03-01T12:06:01;8.53;;;6.07;;
840;SDS011;406;48.566;13.450;2023-03-01T12:08:56;8.40;;;5.90;;
840;SDS011;406;48.566;13.450;2023-03-01T12:17:51;10.90;;;7.90;;
840;SDS011;406;48.566;13.450;2023-03-01T12:23:12;9.97;;;7.17;;
840;SDS011;406;48.566;13.450;2023-03-01T12:26:06;13.60;;;8.77;;
840;SDS011;406;48.566;13.450;2023-03-01T12:28:51;11.20;;;9.50;;
840;SDS011;406;48.566;13.450;2023-03-01T12:35:13;14.27;;;9.60;;
840;SDS011;406;48.566;13.450;2023-03-01T12:43:26;13.60;;;10.30;;
840;SDS011;406;48.566;13.450;2023-03-01T12:49:15;14.23;;;10.63;;
840;SDS011;406;48.566;13.450;2023-03-01T12:51:45;18.10;;;11.57;;
840;SDS011;406;48.566;13.450;2023-03-01T12:54:24;16.73;;;10.33;;
840;SDS011;406;48.566;13.450;2023-03-01T12:56:54;14.90;;;11.00;;
840;SDS011;406;48.566;13.450;2023-03-01T12:59:24;20.03;;;11.67;;
840;SDS011;406;48.566;13.450;2023-03-01T13:02:13;17.10;;;11.80;;
840;SDS011;406;48.566;13.450;2023-03-01T13:04:52;15.80;;;10.70;;
840;SDS011;406;48.566;13.450;2023-03-01T13:10:40;13.03;;;10.83;;
840;SDS011;406;48.566;13.450;2023-03-01T13:13:22;12.70;;;9.77;;
840;SDS011;406;48.566;13.450;2023-03-01T13:15:53;12.30;;;10.17;;
840;SDS011;406;48.566;13.450;2023-03-01T13:20:49;15.63;;;10.87;;
840;SDS011;406;48.566;13.450;2023-03-01T13:30:58;12.23;;;9.37;;
840;SDS011;406;48.566;13.450;2023-03-01T13:35:55;13.60;;;9.90;;
840;SDS011;406;48.566;13.450;2023-03-01T13:41:17;14.60;;;10.90;;
840;SDS011;406;48.566;13.450;2023-03-01T13:46:47;13.17;;;9.83;;
840;SDS011;406;48.566;13.450;2023-03-01T13:49:16;14.03;;;9.10;;
840;SDS011;406;48.566;13.450;2023-03-01T13:51:47;13.03;;;9.97;;
840;SDS011;406;48.566;13.450;2023-03-01T13:54:25;13.93;;;9.93;;
840;SDS011;406;48.566;13.450;2023-03-01T13:56:54;16.10;;;9.87;;
840;SDS011;406;48.566;13.450;2023-03-01T13:59:22;12.57;;;9.90;;
840;SDS011;406;48.566;13.450;2023-03-01T14:01:52;14.30;;;9.10;;
840;SDS011;406;48.566;13.450;2023-03-01T14:04:21;14.40;;;9.50;;
840;SDS011;406;48.566;13.450;2023-03-01T14:06:49;11.47;;;8.37;;
840;SDS011;406;48.566;13.450;2023-03-01T14:12:06;11.50;;;8.53;;
840;SDS011;406;48.566;13.450;2023-03-01T14:22:49;11.07;;;7.60;;
840;SDS011;406;48.566;13.450;2023-03-01T14:25:21;9.23;;;7.43;;
840;SDS011;406;48.566;13.450;2023-03-01T14:27:58;9.47;;;6.87;;
840;SDS011;406;48.566;13.450;2023-03-01T14:30:31;11.70;;;7.10;;
840;SDS011;406;48.566;13.450;2023-03-01T14:33:05;10.00;;;7.50;;
840;SDS011;406;48.566;13.450;2023-03-01T14:35:35;9.73;;;7.17;;
840;SDS011;406;48.566;13.450;2023-03-01T14:38:02;10.77;;;8.20;;
840;SDS011;406;48.566;13.450;2023-03-01T14:40:31;10.97;;;7.87;;
840;SDS011;406;48.566;13.450;2023-03-01T14:43:00;11.37;;;7.27;;
840;SDS011;406;48.566;13.450;2023-03-01T14:45:29;9.00;;;7.07;;
840;SDS011;406;48.566;13.450;2023-03-01T14:47:58;8.20;;;7.20;;
840;SDS011;406;48.566;13.450;2023-03-01T14:52:58;11.40;;;7.97;;
840;SDS011;406;48.566;13.450;2023-03-01T14:55:36;14.10;;;6.90;;
840;SDS011;406;48.566;13.450;2023-03-01T14:58:06;11.37;;;7.20;;
840;SDS011;406;48.566;13.450;2023-03-01T15:00:36;10.37;;;6.53;;
840;SDS011;406;48.566;13.450;2023-03-01T15:03:06;9.23;;;6.90;;
840;SDS011;406;48.566;13.450;2023-03-01T15:05:39;9.97;;;7.03;;
840;SDS011;406;48.566;13.450;2023-03-01T15:08:08;9.03;;;6.83;;
840;SDS011;406;48.566;13.450;2023-03-01T15:10:54;8.33;;;7.10;;
840;SDS011;406;48.566;13.450;2023-03-01T15:13:23;10.37;;;7.87;;
840;SDS011;406;48.566;13.450;2023-03-01T15:15:51;12.17;;;8.20;;
840;SDS011;406;48.566;13.450;2023-03-01T15:18:21;8.90;;;7.33;;
840;SDS011;406;48.566;13.450;2023-03-01T15:20:54;17.13;;;6.87;;
840;SDS011;406;48.566;13.450;2023-03-01T15:23:23;10.60;;;6.60;;
840;SDS011;406;48.566;13.450;2023-03-01T15:25:51;9.93;;;7.00;;
840;SDS011;406;48.566;13.450;2023-03-01T15:28:26;11.23;;;7.60;;
840;SDS011;406;48.566;13.450;2023-03-01T15:30:55;8.97;;;6.77;;
840;SDS011;406;48.566;13.450;2023-03-01T15:35:53;14.90;;;8.40;;
840;SDS011;406;48.566;13.450;2023-03-01T15:38:35;11.73;;;8.60;;
840;SDS011;406;48.566;13.450;2023-03-01T15:41:22;13.40;;;7.40;;
840;SDS011;406;48.566;13.450;2023-03-01T15:43:53;11.17;;;7.60;;
840;SDS011;406;48.566;13.450;2023-03-01T15:46:27;15.17;;;7.60;;
840;SDS011;406;48.566;13.450;2023-03-01T15:48:58;11.07;;;7.97;;
840;SDS011;406;48.566;13.450;2023-03-01T15:51:30;10.83;;;7.70;;
840;SDS011;406;48.566;13.450;2023-03-01T15:53:59;11.27;;;7.93;;
840;SDS011;406;48.566;13.450;2023-03-01T15:56:27;11.07;;;7.17;;
840;SDS011;406;48.566;13.450;2023-03-01T15:58:58;12.37;;;9.13;;
840;SDS011;406;48.566;13.450;2023-03-01T16:01:26;11.50;;;7.40;;
840;SDS011;406;48.566;13.450;2023-03-01T16:03:53;11.73;;;8.33;;
840;SDS011;406;48.566;13.450;2023-03-01T16:06:20;14.50;;;8.67;;
840;SDS011;406;48.566;13.450;2023-03-01T16:08:47;10.90;;;9.17;;
840;SDS011;406;48.566;13.450;2023-03-01T16:11:14;10.23;;;8.50;;
840;SDS011;406;48.566;13.450;2023-03-01T16:13:42;10.63;;;8.10;;
840;SDS011;406;48.566;13.450;2023-03-01T16:16:13;10.23;;;8.40;;
840;SDS011;406;48.566;13.450;2023-03-01T16:18:45;10.10;;;7.70;;
840;SDS011;406;48.566;13.450;2023-03-01T16:21:18;13.73;;;8.50;;
840;SDS011;406;48.566;13.450;2023-03-01T16:23:46;9.30;;;7.97;;
840;SDS011;406;48.566;13.450;2023-03-01T16:26:13;12.77;;;8.77;;
840;SDS011;406;48.566;13.450;2023-03-01T16:28:41;13.50;;;9.50;;
840;SDS011;406;48.566;13.450;2023-03-01T16:31:08;12.00;;;8.20;;
840;SDS011;406;48.566;13.450;2023-03-01T16:33:36;14.00;;;9.03;;
840;SDS011;406;48.566;13.450;2023-03-01T16:36:07;10.53;;;8.80;;
840;SDS011;406;48.566;13.450;2023-03-01T16:38:35;16.67;;;9.30;;
840;SDS011;406;48.566;13.450;2023-03-01T16:41:01;13.40;;;9.30;;
840;SDS011;406;48.566;13.450;2023-03-01T16:43:28;14.90;;;10.60;;
840;SDS011;406;48.566;13.450;2023-03-01T16:45:55;14.30;;;8.57;;
840;SDS011;406;48.566;13.450;2023-03-01T16:48:22;13.13;;;8.40;;
840;SDS011;406;48.566;13.450;2023-03-01T16:50:55;12.53;;;8.07;;
840;SDS011;406;48.566;13.450;2023-03-01T16:53:23;15.77;;;8.87;;
840;SDS011;406;48.566;13.450;2023-03-01T16:55:56;13.43;;;8.20;;
840;SDS011;406;48.566;13.450;2023-03-01T16:58:23;13.23;;;8.50;;
840;SDS011;406;48.566;13.450;2023-03-01T17:00:53;10.87;;;7.57;;
840;SDS011;406;48.566;13.450;2023-03-01T17:03:21;13.40;;;8.87;;
840;SDS011;406;48.566;13.450;2023-03-01T17:05:48;21.53;;;9.57;;
840;SDS011;406;48.566;13.450;2023-03-01T17:08:16;14.33;;;8.33;;
840;SDS011;406;48.566;13.450;2023-03-01T17:10:42;12.27;;;7.37;;
840;SDS011;406;48.566;13.450;2023-03-01T17:13:09;13.30;;;9.20;;
840;SDS011;406;48.566;13.450;2023-03-01T17:15:40;11.83;;;7.73;;